sensor_id;sensor_type;location;lat;lon;timestamp;temperature;humidity
22917;DHT22;11624;53.250;7.456;2023-07-22T00:01:25;19.47;56.28
22917;DHT22;11624;53.250;7.456;2023-07-22T00:03:53;19.48;56.36
22917;DHT22;11624;53.250;7.456;2023-07-22T00:06:21;19.48;56.55
22917;DHT22;11624;53.250;7.456;2023-07-22T00:08:50;19.51;56.57
22917;DHT22;11624;53.250;7.456;2023-07-22T00:11:18;19.53;56.71
22917;DHT22;11624;53.250;7.456;2023-07-22T00:13:46;19.58;56.64
22917;DHT22;11624;53.250;7.456;2023-07-22T00:16:15;19.51;57.11
22917;DHT22;11624;53.250;7.456;2023-07-22T00:18:44;19.59;56.97
22917;DHT22;11624;53.250;7.456;2023-07-22T00:21:12;19.57;57.07
22917;DHT22;11624;53.250;7.456;2023-07-22T00:23:40;19.55;57.22
22917;DHT22;11624;53.250;7.456;2023-07-22T00:26:09;19.61;57.06
22917;DHT22;11624;53.250;7.456;2023-07-22T00:28:37;19.65;57.16
22917;DHT22;11624;53.250;7.456;2023-07-22T00:31:05;19.59;57.48
22917;DHT22;11624;53.250;7.456;2023-07-22T00:33:35;19.67;57.55
22917;DHT22;11624;53.250;7.456;2023-07-22T00:36:04;19.66;57.55
22917;DHT22;11624;53.250;7.456;2023-07-22T00:38:33;19.68;57.58
22917;DHT22;11624;53.250;7.456;2023-07-22T00:41:01;19.74;57.29
22917;DHT22;11624;53.250;7.456;2023-07-22T00:43:31;19.70;57.32
22917;DHT22;11624;53.250;7.456;2023-07-22T00:45:59;19.74;56.94
22917;DHT22;11624;53.250;7.456;2023-07-22T00:48:27;19.60;57.24
22917;DHT22;11624;53.250;7.456;2023-07-22T00:50:56;19.51;57.44
22917;DHT22;11624;53.250;7.456;2023-07-22T00:53:26;19.56;56.99
22917;DHT22;11624;53.250;7.456;2023-07-22T00:55:54;19.58;56.90
22917;DHT22;11624;53.250;7.456;2023-07-22T00:58:22;19.56;56.90
22917;DHT22;11624;53.250;7.456;2023-07-22T01:00:50;19.50;57.02
22917;DHT22;11624;53.250;7.456;2023-07-22T01:03:19;19.44;57.20
22917;DHT22;11624;53.250;7.456;2023-07-22T01:05:48;19.45;57.08
22917;DHT22;11624;53.250;7.456;2023-07-22T01:08:19;19.38;57.28
22917;DHT22;11624;53.250;7.456;2023-07-22T01:10:48;19.33;57.28
22917;DHT22;11624;53.250;7.456;2023-07-22T01:13:16;19.38;57.04
22917;DHT22;11624;53.250;7.456;2023-07-22T01:15:44;19.23;57.46
22917;DHT22;11624;53.250;7.456;2023-07-22T01:18:13;19.24;57.45
22917;DHT22;11624;53.250;7.456;2023-07-22T01:20:42;19.28;57.21
22917;DHT22;11624;53.250;7.456;2023-07-22T01:23:12;19.28;57.16
22917;DHT22;11624;53.250;7.456;2023-07-22T01:25:40;19.20;57.58
22917;DHT22;11624;53.250;7.456;2023-07-22T01:28:09;19.21;57.64
22917;DHT22;11624;53.250;7.456;2023-07-22T01:30:38;19.25;57.48
22917;DHT22;11624;53.250;7.456;2023-07-22T01:33:07;19.27;57.35
22917;DHT22;11624;53.250;7.456;2023-07-22T01:35:35;19.24;57.44
22917;DHT22;11624;53.250;7.456;2023-07-22T01:38:03;19.25;57.39
22917;DHT22;11624;53.250;7.456;2023-07-22T01:40:33;19.20;57.33
22917;DHT22;11624;53.250;7.456;2023-07-22T01:43:01;19.22;57.27
22917;DHT22;11624;53.250;7.456;2023-07-22T01:45:29;19.11;57.59
22917;DHT22;11624;53.250;7.456;2023-07-22T01:47:57;19.13;57.38
22917;DHT22;11624;53.250;7.456;2023-07-22T01:50:25;19.06;57.52
22917;DHT22;11624;53.250;7.456;2023-07-22T01:52:54;19.05;57.44
22917;DHT22;11624;53.250;7.456;2023-07-22T01:55:22;19.02;57.42
22917;DHT22;11624;53.250;7.456;2023-07-22T01:57:54;19.00;57.24
22917;DHT22;11624;53.250;7.456;2023-07-22T02:00:22;18.94;57.63
22917;DHT22;11624;53.250;7.456;2023-07-22T02:02:50;18.91;57.67
22917;DHT22;11624;53.250;7.456;2023-07-22T02:05:18;18.92;57.58
22917;DHT22;11624;53.250;7.456;2023-07-22T02:07:47;18.93;57.52
22917;DHT22;11624;53.250;7.456;2023-07-22T02:10:16;18.80;57.95
22917;DHT22;11624;53.250;7.456;2023-07-22T02:12:44;18.84;57.78
22917;DHT22;11624;53.250;7.456;2023-07-22T02:15:13;18.87;57.61
22917;DHT22;11624;53.250;7.456;2023-07-22T02:17:42;18.88;57.55
22917;DHT22;11624;53.250;7.456;2023-07-22T02:20:11;18.85;57.70
22917;DHT22;11624;53.250;7.456;2023-07-22T02:22:39;18.88;57.61
22917;DHT22;11624;53.250;7.456;2023-07-22T02:25:07;18.93;57.47
22917;DHT22;11624;53.250;7.456;2023-07-22T02:27:37;18.95;57.51
22917;DHT22;11624;53.250;7.456;2023-07-22T02:30:08;18.97;57.43
22917;DHT22;11624;53.250;7.456;2023-07-22T02:32:39;18.99;57.32
22917;DHT22;11624;53.250;7.456;2023-07-22T02:35:09;19.00;57.32
22917;DHT22;11624;53.250;7.456;2023-07-22T02:37:38;19.02;57.23
22917;DHT22;11624;53.250;7.456;2023-07-22T02:40:07;18.94;57.48
22917;DHT22;11624;53.250;7.456;2023-07-22T02:42:37;18.95;57.29
22917;DHT22;11624;53.250;7.456;2023-07-22T02:45:06;18.91;57.30
22917;DHT22;11624;53.250;7.456;2023-07-22T02:47:35;18.86;57.32
22917;DHT22;11624;53.250;7.456;2023-07-22T02:50:06;18.87;57.05
22917;DHT22;11624;53.250;7.456;2023-07-22T02:52:34;18.86;56.99
22917;DHT22;11624;53.250;7.456;2023-07-22T02:55:07;18.81;56.56
22917;DHT22;11624;53.250;7.456;2023-07-22T02:57:38;18.80;56.97
22917;DHT22;11624;53.250;7.456;2023-07-22T03:00:07;18.80;56.89
22917;DHT22;11624;53.250;7.456;2023-07-22T03:02:39;18.78;56.83
22917;DHT22;11624;53.250;7.456;2023-07-22T03:05:09;18.77;56.76
22917;DHT22;11624;53.250;7.456;2023-07-22T03:07:38;18.72;56.85
22917;DHT22;11624;53.250;7.456;2023-07-22T03:10:07;18.73;56.70
22917;DHT22;11624;53.250;7.456;2023-07-22T03:12:36;18.68;56.69
22917;DHT22;11624;53.250;7.456;2023-07-22T03:15:06;18.65;56.55
22917;DHT22;11624;53.250;7.456;2023-07-22T03:17:36;18.58;56.61
22917;DHT22;11624;53.250;7.456;2023-07-22T03:20:05;18.54;56.74
22917;DHT22;11624;53.250;7.456;2023-07-22T03:22:39;18.50;56.77
22917;DHT22;11624;53.250;7.456;2023-07-22T03:25:08;18.47;56.98
22917;DHT22;11624;53.250;7.456;2023-07-22T03:27:37;18.43;57.16
22917;DHT22;11624;53.250;7.456;2023-07-22T03:30:07;18.47;57.03
22917;DHT22;11624;53.250;7.456;2023-07-22T03:32:37;18.46;57.04
22917;DHT22;11624;53.250;7.456;2023-07-22T03:35:06;18.49;56.96
22917;DHT22;11624;53.250;7.456;2023-07-22T03:37:40;18.48;56.92
22917;DHT22;11624;53.250;7.456;2023-07-22T03:40:09;18.49;56.93
22917;DHT22;11624;53.250;7.456;2023-07-22T03:42:44;18.49;56.99
22917;DHT22;11624;53.250;7.456;2023-07-22T03:45:12;18.47;57.10
22917;DHT22;11624;53.250;7.456;2023-07-22T03:47:40;18.46;57.13
22917;DHT22;11624;53.250;7.456;2023-07-22T03:50:09;18.39;57.45
22917;DHT22;11624;53.250;7.456;2023-07-22T03:52:38;18.38;57.40
22917;DHT22;11624;53.250;7.456;2023-07-22T03:55:07;18.40;57.41
22917;DHT22;11624;53.250;7.456;2023-07-22T03:57:36;18.42;57.33
22917;DHT22;11624;53.250;7.456;2023-07-22T04:00:06;18.44;57.19
22917;DHT22;11624;53.250;7.456;2023-07-22T04:02:40;18.46;57.28
22917;DHT22;11624;53.250;7.456;2023-07-22T04:05:10;18.44;57.36
22917;DHT22;11624;53.250;7.456;2023-07-22T04:07:39;18.47;57.42
22917;DHT22;11624;53.250;7.456;2023-07-22T04:10:08;18.44;57.55
22917;DHT22;11624;53.250;7.456;2023-07-22T04:12:36;18.50;57.51
22917;DHT22;11624;53.250;7.456;2023-07-22T04:15:08;18.56;57.41
22917;DHT22;11624;53.250;7.456;2023-07-22T04:17:37;18.61;57.32
22917;DHT22;11624;53.250;7.456;2023-07-22T04:20:06;18.58;57.52
22917;DHT22;11624;53.250;7.456;2023-07-22T04:22:36;18.59;57.51
22917;DHT22;11624;53.250;7.456;2023-07-22T04:25:06;18.59;57.51
22917;DHT22;11624;53.250;7.456;2023-07-22T04:27:36;18.59;57.84
22917;DHT22;11624;53.250;7.456;2023-07-22T04:30:04;18.63;57.85
22917;DHT22;11624;53.250;7.456;2023-07-22T04:32:33;18.67;57.93
22917;DHT22;11624;53.250;7.456;2023-07-22T04:35:02;18.69;58.04
22917;DHT22;11624;53.250;7.456;2023-07-22T04:37:32;18.80;57.91
22917;DHT22;11624;53.250;7.456;2023-07-22T04:40:00;18.83;57.99
22917;DHT22;11624;53.250;7.456;2023-07-22T04:42:34;18.93;57.84
22917;DHT22;11624;53.250;7.456;2023-07-22T04:45:03;18.95;57.96
22917;DHT22;11624;53.250;7.456;2023-07-22T04:47:31;19.00;57.91
22917;DHT22;11624;53.250;7.456;2023-07-22T04:49:59;19.05;57.93
22917;DHT22;11624;53.250;7.456;2023-07-22T04:52:27;19.18;57.61
22917;DHT22;11624;53.250;7.456;2023-07-22T04:54:55;19.27;57.42
22917;DHT22;11624;53.250;7.456;2023-07-22T04:57:23;19.30;57.37
22917;DHT22;11624;53.250;7.456;2023-07-22T04:59:53;19.38;57.10
22917;DHT22;11624;53.250;7.456;2023-07-22T05:02:21;19.40;57.32
22917;DHT22;11624;53.250;7.456;2023-07-22T05:04:49;19.51;57.01
22917;DHT22;11624;53.250;7.456;2023-07-22T05:07:17;19.59;56.72
22917;DHT22;11624;53.250;7.456;2023-07-22T05:09:45;19.60;56.70
22917;DHT22;11624;53.250;7.456;2023-07-22T05:12:14;19.71;56.51
22917;DHT22;11624;53.250;7.456;2023-07-22T05:14:42;19.79;56.36
22917;DHT22;11624;53.250;7.456;2023-07-22T05:17:12;19.91;56.14
22917;DHT22;11624;53.250;7.456;2023-07-22T05:19:40;20.01;56.19
22917;DHT22;11624;53.250;7.456;2023-07-22T05:22:08;20.09;55.87
22917;DHT22;11624;53.250;7.456;2023-07-22T05:24:37;20.17;55.78
22917;DHT22;11624;53.250;7.456;2023-07-22T05:27:06;20.27;55.62
22917;DHT22;11624;53.250;7.456;2023-07-22T05:29:36;20.40;55.63
22917;DHT22;11624;53.250;7.456;2023-07-22T05:32:05;20.56;55.33
22917;DHT22;11624;53.250;7.456;2023-07-22T05:34:51;20.63;55.03
22917;DHT22;11624;53.250;7.456;2023-07-22T05:37:19;20.65;54.99
22917;DHT22;11624;53.250;7.456;2023-07-22T05:39:47;20.77;54.24
22917;DHT22;11624;53.250;7.456;2023-07-22T05:42:16;20.83;54.20
22917;DHT22;11624;53.250;7.456;2023-07-22T05:44:45;20.96;54.07
22917;DHT22;11624;53.250;7.456;2023-07-22T05:47:13;21.07;53.88
22917;DHT22;11624;53.250;7.456;2023-07-22T05:49:44;21.06;53.68
22917;DHT22;11624;53.250;7.456;2023-07-22T05:52:14;21.06;53.54
22917;DHT22;11624;53.250;7.456;2023-07-22T05:54:42;20.94;53.40
22917;DHT22;11624;53.250;7.456;2023-07-22T05:57:11;21.00;53.54
22917;DHT22;11624;53.250;7.456;2023-07-22T05:59:39;21.13;53.36
22917;DHT22;11624;53.250;7.456;2023-07-22T06:02:08;21.11;53.11
22917;DHT22;11624;53.250;7.456;2023-07-22T06:04:37;21.09;53.14
22917;DHT22;11624;53.250;7.456;2023-07-22T06:07:06;21.17;52.85
22917;DHT22;11624;53.250;7.456;2023-07-22T06:09:36;21.21;53.10
22917;DHT22;11624;53.250;7.456;2023-07-22T06:12:04;21.21;53.02
22917;DHT22;11624;53.250;7.456;2023-07-22T06:14:33;21.32;53.09
22917;DHT22;11624;53.250;7.456;2023-07-22T06:17:02;21.42;52.95
22917;DHT22;11624;53.250;7.456;2023-07-22T06:19:30;21.55;52.71
22917;DHT22;11624;53.250;7.456;2023-07-22T06:21:59;21.61;52.56
22917;DHT22;11624;53.250;7.456;2023-07-22T06:24:27;21.72;52.43
22917;DHT22;11624;53.250;7.456;2023-07-22T06:26:57;21.77;52.07
22917;DHT22;11624;53.250;7.456;2023-07-22T06:29:25;21.78;52.22
22917;DHT22;11624;53.250;7.456;2023-07-22T06:31:54;21.81;52.24
22917;DHT22;11624;53.250;7.456;2023-07-22T06:34:22;21.90;52.11
22917;DHT22;11624;53.250;7.456;2023-07-22T06:36:50;21.97;51.85
22917;DHT22;11624;53.250;7.456;2023-07-22T06:39:19;21.97;51.85
22917;DHT22;11624;53.250;7.456;2023-07-22T06:41:47;22.02;51.61
22917;DHT22;11624;53.250;7.456;2023-07-22T06:44:17;22.05;51.29
22917;DHT22;11624;53.250;7.456;2023-07-22T06:46:45;22.14;51.44
22917;DHT22;11624;53.250;7.456;2023-07-22T06:49:13;22.27;51.24
22917;DHT22;11624;53.250;7.456;2023-07-22T06:51:42;22.46;50.50
22917;DHT22;11624;53.250;7.456;2023-07-22T06:54:10;22.43;50.58
22917;DHT22;11624;53.250;7.456;2023-07-22T06:56:38;22.49;50.30
22917;DHT22;11624;53.250;7.456;2023-07-22T06:59:07;22.48;50.07
22917;DHT22;11624;53.250;7.456;2023-07-22T07:01:37;22.54;49.90
22917;DHT22;11624;53.250;7.456;2023-07-22T07:04:05;22.70;50.05
22917;DHT22;11624;53.250;7.456;2023-07-22T07:06:33;22.91;49.49
22917;DHT22;11624;53.250;7.456;2023-07-22T07:09:02;23.07;49.36
22917;DHT22;11624;53.250;7.456;2023-07-22T07:11:31;23.27;49.11
22917;DHT22;11624;53.250;7.456;2023-07-22T07:13:59;23.39;48.66
22917;DHT22;11624;53.250;7.456;2023-07-22T07:16:29;23.45;48.51
22917;DHT22;11624;53.250;7.456;2023-07-22T07:19:01;23.59;47.67
22917;DHT22;11624;53.250;7.456;2023-07-22T07:21:29;23.60;47.67
22917;DHT22;11624;53.250;7.456;2023-07-22T07:23:57;23.61;48.09
22917;DHT22;11624;53.250;7.456;2023-07-22T07:26:26;23.89;47.60
22917;DHT22;11624;53.250;7.456;2023-07-22T07:28:55;24.17;46.35
22917;DHT22;11624;53.250;7.456;2023-07-22T07:31:23;24.19;45.87
22917;DHT22;11624;53.250;7.456;2023-07-22T07:33:52;24.28;45.55
22917;DHT22;11624;53.250;7.456;2023-07-22T07:36:21;24.26;45.39
22917;DHT22;11624;53.250;7.456;2023-07-22T07:38:50;24.27;45.09
22917;DHT22;11624;53.250;7.456;2023-07-22T07:41:18;24.19;45.17
22917;DHT22;11624;53.250;7.456;2023-07-22T07:43:47;24.26;45.78
22917;DHT22;11624;53.250;7.456;2023-07-22T07:46:16;24.49;45.47
22917;DHT22;11624;53.250;7.456;2023-07-22T07:48:46;24.85;45.69
22917;DHT22;11624;53.250;7.456;2023-07-22T07:51:15;25.02;44.34
22917;DHT22;11624;53.250;7.456;2023-07-22T07:53:45;25.46;43.80
22917;DHT22;11624;53.250;7.456;2023-07-22T07:56:16;25.65;42.53
22917;DHT22;11624;53.250;7.456;2023-07-22T07:58:46;26.03;42.03
22917;DHT22;11624;53.250;7.456;2023-07-22T08:01:15;26.03;41.32
22917;DHT22;11624;53.250;7.456;2023-07-22T08:03:44;26.03;41.12
22917;DHT22;11624;53.250;7.456;2023-07-22T08:06:13;26.03;41.36
22917;DHT22;11624;53.250;7.456;2023-07-22T08:08:49;25.77;41.52
22917;DHT22;11624;53.250;7.456;2023-07-22T08:11:18;25.72;41.96
22917;DHT22;11624;53.250;7.456;2023-07-22T08:13:46;25.56;42.32
22917;DHT22;11624;53.250;7.456;2023-07-22T08:16:15;25.51;42.36
22917;DHT22;11624;53.250;7.456;2023-07-22T08:18:43;25.22;43.29
22917;DHT22;11624;53.250;7.456;2023-07-22T08:21:14;25.19;43.57
22917;DHT22;11624;53.250;7.456;2023-07-22T08:23:42;25.24;43.32
22917;DHT22;11624;53.250;7.456;2023-07-22T08:26:15;25.16;43.87
22917;DHT22;11624;53.250;7.456;2023-07-22T08:28:48;25.30;43.97
22917;DHT22;11624;53.250;7.456;2023-07-22T08:31:16;25.60;42.96
22917;DHT22;11624;53.250;7.456;2023-07-22T08:33:44;25.69;42.93
22917;DHT22;11624;53.250;7.456;2023-07-22T08:36:13;25.66;42.79
22917;DHT22;11624;53.250;7.456;2023-07-22T08:38:41;25.79;42.23
22917;DHT22;11624;53.250;7.456;2023-07-22T08:41:15;25.68;42.19
22917;DHT22;11624;53.250;7.456;2023-07-22T08:43:45;25.76;41.52
22917;DHT22;11624;53.250;7.456;2023-07-22T08:46:15;25.93;40.75
22917;DHT22;11624;53.250;7.456;2023-07-22T08:48:46;26.16;41.11
22917;DHT22;11624;53.250;7.456;2023-07-22T08:51:17;26.33;40.91
22917;DHT22;11624;53.250;7.456;2023-07-22T08:53:46;26.34;41.58
22917;DHT22;11624;53.250;7.456;2023-07-22T08:56:32;26.25;41.07
22917;DHT22;11624;53.250;7.456;2023-07-22T08:59:01;26.26;41.04
22917;DHT22;11624;53.250;7.456;2023-07-22T09:01:29;26.25;40.42
22917;DHT22;11624;53.250;7.456;2023-07-22T09:03:58;26.35;40.77
22917;DHT22;11624;53.250;7.456;2023-07-22T09:06:27;26.32;40.71
22917;DHT22;11624;53.250;7.456;2023-07-22T09:08:56;26.43;40.93
22917;DHT22;11624;53.250;7.456;2023-07-22T09:11:25;26.38;40.56
22917;DHT22;11624;53.250;7.456;2023-07-22T09:13:55;26.22;40.50
22917;DHT22;11624;53.250;7.456;2023-07-22T09:16:25;26.15;41.15
22917;DHT22;11624;53.250;7.456;2023-07-22T09:18:58;26.13;40.32
22917;DHT22;11624;53.250;7.456;2023-07-22T09:21:27;26.19;40.53
22917;DHT22;11624;53.250;7.456;2023-07-22T09:23:56;26.12;40.71
22917;DHT22;11624;53.250;7.456;2023-07-22T09:26:24;26.15;41.30
22917;DHT22;11624;53.250;7.456;2023-07-22T09:28:55;26.26;41.41
22917;DHT22;11624;53.250;7.456;2023-07-22T09:31:25;26.38;40.43
22917;DHT22;11624;53.250;7.456;2023-07-22T09:33:55;26.33;40.67
22917;DHT22;11624;53.250;7.456;2023-07-22T09:36:49;26.40;39.62
22917;DHT22;11624;53.250;7.456;2023-07-22T09:39:18;26.61;40.26
22917;DHT22;11624;53.250;7.456;2023-07-22T09:41:46;27.01;39.51
22917;DHT22;11624;53.250;7.456;2023-07-22T09:44:16;27.13;38.50
22917;DHT22;11624;53.250;7.456;2023-07-22T09:46:47;27.25;38.15
22917;DHT22;11624;53.250;7.456;2023-07-22T09:49:18;27.39;38.46
22917;DHT22;11624;53.250;7.456;2023-07-22T09:51:46;27.53;37.85
22917;DHT22;11624;53.250;7.456;2023-07-22T09:54:29;27.65;38.14
22917;DHT22;11624;53.250;7.456;2023-07-22T09:56:58;27.74;37.49
22917;DHT22;11624;53.250;7.456;2023-07-22T09:59:29;27.52;36.65
22917;DHT22;11624;53.250;7.456;2023-07-22T10:01:58;27.28;36.60
22917;DHT22;11624;53.250;7.456;2023-07-22T10:04:33;27.16;37.42
22917;DHT22;11624;53.250;7.456;2023-07-22T10:07:03;26.95;37.90
22917;DHT22;11624;53.250;7.456;2023-07-22T10:09:35;26.56;38.24
22917;DHT22;11624;53.250;7.456;2023-07-22T10:12:06;26.33;38.71
22917;DHT22;11624;53.250;7.456;2023-07-22T10:14:36;26.08;39.03
22917;DHT22;11624;53.250;7.456;2023-07-22T10:17:06;25.98;39.96
22917;DHT22;11624;53.250;7.456;2023-07-22T10:19:36;26.05;40.22
22917;DHT22;11624;53.250;7.456;2023-07-22T10:22:05;25.94;40.26
22917;DHT22;11624;53.250;7.456;2023-07-22T10:24:39;25.82;39.38
22917;DHT22;11624;53.250;7.456;2023-07-22T10:27:09;25.76;40.13
22917;DHT22;11624;53.250;7.456;2023-07-22T10:29:40;25.73;40.26
22917;DHT22;11624;53.250;7.456;2023-07-22T10:32:09;25.52;40.46
22917;DHT22;11624;53.250;7.456;2023-07-22T10:34:37;25.34;41.35
22917;DHT22;11624;53.250;7.456;2023-07-22T10:37:09;25.30;41.87
22917;DHT22;11624;53.250;7.456;2023-07-22T10:39:37;25.30;42.77
22917;DHT22;11624;53.250;7.456;2023-07-22T10:42:06;25.18;42.85
22917;DHT22;11624;53.250;7.456;2023-07-22T10:44:36;25.29;42.84
22917;DHT22;11624;53.250;7.456;2023-07-22T10:47:07;25.13;43.22
22917;DHT22;11624;53.250;7.456;2023-07-22T10:49:44;24.91;43.73
22917;DHT22;11624;53.250;7.456;2023-07-22T10:52:13;24.97;44.00
22917;DHT22;11624;53.250;7.456;2023-07-22T10:54:42;24.95;44.16
22917;DHT22;11624;53.250;7.456;2023-07-22T10:57:23;24.95;44.19
22917;DHT22;11624;53.250;7.456;2023-07-22T10:59:52;25.01;44.79
22917;DHT22;11624;53.250;7.456;2023-07-22T11:02:26;25.18;44.82
22917;DHT22;11624;53.250;7.456;2023-07-22T11:04:56;25.32;44.77
22917;DHT22;11624;53.250;7.456;2023-07-22T11:07:31;25.43;44.36
22917;DHT22;11624;53.250;7.456;2023-07-22T11:10:13;25.42;44.98
22917;DHT22;11624;53.250;7.456;2023-07-22T11:12:54;25.35;44.61
22917;DHT22;11624;53.250;7.456;2023-07-22T11:15:22;25.22;45.65
22917;DHT22;11624;53.250;7.456;2023-07-22T11:17:52;25.24;45.67
22917;DHT22;11624;53.250;7.456;2023-07-22T11:20:22;25.23;46.19
22917;DHT22;11624;53.250;7.456;2023-07-22T11:22:50;25.16;46.38
22917;DHT22;11624;53.250;7.456;2023-07-22T11:25:19;25.07;46.54
22917;DHT22;11624;53.250;7.456;2023-07-22T11:27:48;25.02;46.72
22917;DHT22;11624;53.250;7.456;2023-07-22T11:30:16;24.94;46.82
22917;DHT22;11624;53.250;7.456;2023-07-22T11:32:45;24.90;46.96
22917;DHT22;11624;53.250;7.456;2023-07-22T11:35:19;24.90;47.07
22917;DHT22;11624;53.250;7.456;2023-07-22T11:37:47;24.82;47.37
22917;DHT22;11624;53.250;7.456;2023-07-22T11:40:15;24.72;47.75
22917;DHT22;11624;53.250;7.456;2023-07-22T11:42:44;24.70;47.96
22917;DHT22;11624;53.250;7.456;2023-07-22T11:45:14;24.72;48.41
22917;DHT22;11624;53.250;7.456;2023-07-22T11:47:43;24.74;48.36
22917;DHT22;11624;53.250;7.456;2023-07-22T11:50:12;24.72;48.46
22917;DHT22;11624;53.250;7.456;2023-07-22T11:52:42;24.66;48.59
22917;DHT22;11624;53.250;7.456;2023-07-22T11:55:11;24.66;48.79
22917;DHT22;11624;53.250;7.456;2023-07-22T11:57:52;24.58;49.04
22917;DHT22;11624;53.250;7.456;2023-07-22T12:00:22;24.62;49.28
22917;DHT22;11624;53.250;7.456;2023-07-22T12:02:50;24.61;49.44
22917;DHT22;11624;53.250;7.456;2023-07-22T12:05:24;24.63;49.82
22917;DHT22;11624;53.250;7.456;2023-07-22T12:07:53;24.71;49.86
22917;DHT22;11624;53.250;7.456;2023-07-22T12:10:24;24.47;50.56
22917;DHT22;11624;53.250;7.456;2023-07-22T12:12:53;24.44;50.52
22917;DHT22;11624;53.250;7.456;2023-07-22T12:15:22;24.45;50.40
22917;DHT22;11624;53.250;7.456;2023-07-22T12:17:52;24.43;50.34
22917;DHT22;11624;53.250;7.456;2023-07-22T12:20:23;24.43;50.44
22917;DHT22;11624;53.250;7.456;2023-07-22T12:22:54;24.41;51.02
22917;DHT22;11624;53.250;7.456;2023-07-22T12:25:22;24.50;51.11
22917;DHT22;11624;53.250;7.456;2023-07-22T12:27:51;24.48;51.32
22917;DHT22;11624;53.250;7.456;2023-07-22T12:30:20;24.53;51.03
22917;DHT22;11624;53.250;7.456;2023-07-22T12:32:49;24.34;51.45
22917;DHT22;11624;53.250;7.456;2023-07-22T12:35:17;24.32;51.46
22917;DHT22;11624;53.250;7.456;2023-07-22T12:37:46;24.12;51.40
22917;DHT22;11624;53.250;7.456;2023-07-22T12:40:16;23.84;51.67
22917;DHT22;11624;53.250;7.456;2023-07-22T12:42:44;23.81;51.81
22917;DHT22;11624;53.250;7.456;2023-07-22T12:45:13;23.70;52.06
22917;DHT22;11624;53.250;7.456;2023-07-22T12:47:41;23.62;52.01
22917;DHT22;11624;53.250;7.456;2023-07-22T12:50:10;23.43;52.57
22917;DHT22;11624;53.250;7.456;2023-07-22T12:52:38;23.38;53.14
22917;DHT22;11624;53.250;7.456;2023-07-22T12:55:07;23.39;53.21
22917;DHT22;11624;53.250;7.456;2023-07-22T12:57:37;23.56;53.59
22917;DHT22;11624;53.250;7.456;2023-07-22T13:00:06;23.62;53.27
22917;DHT22;11624;53.250;7.456;2023-07-22T13:02:37;23.56;53.23
22917;DHT22;11624;53.250;7.456;2023-07-22T13:05:06;23.59;53.52
22917;DHT22;11624;53.250;7.456;2023-07-22T13:07:35;23.58;53.08
22917;DHT22;11624;53.250;7.456;2023-07-22T13:10:04;23.58;53.07
22917;DHT22;11624;53.250;7.456;2023-07-22T13:12:39;23.54;53.07
22917;DHT22;11624;53.250;7.456;2023-07-22T13:15:09;23.51;53.44
22917;DHT22;11624;53.250;7.456;2023-07-22T13:17:37;23.59;53.38
22917;DHT22;11624;53.250;7.456;2023-07-22T13:20:07;23.62;53.39
22917;DHT22;11624;53.250;7.456;2023-07-22T13:22:36;23.54;53.59
22917;DHT22;11624;53.250;7.456;2023-07-22T13:25:05;23.50;53.93
22917;DHT22;11624;53.250;7.456;2023-07-22T13:27:35;23.55;53.65
22917;DHT22;11624;53.250;7.456;2023-07-22T13:30:07;23.54;53.28
22917;DHT22;11624;53.250;7.456;2023-07-22T13:32:36;23.47;53.91
22917;DHT22;11624;53.250;7.456;2023-07-22T13:35:07;23.56;53.66
22917;DHT22;11624;53.250;7.456;2023-07-22T13:37:36;23.66;53.88
22917;DHT22;11624;53.250;7.456;2023-07-22T13:40:08;23.70;53.58
22917;DHT22;11624;53.250;7.456;2023-07-22T13:42:38;23.73;53.81
22917;DHT22;11624;53.250;7.456;2023-07-22T13:45:09;23.81;53.46
22917;DHT22;11624;53.250;7.456;2023-07-22T13:47:37;23.88;53.84
22917;DHT22;11624;53.250;7.456;2023-07-22T13:50:06;23.83;53.75
22917;DHT22;11624;53.250;7.456;2023-07-22T13:52:34;23.84;53.72
22917;DHT22;11624;53.250;7.456;2023-07-22T13:55:03;23.77;53.19
22917;DHT22;11624;53.250;7.456;2023-07-22T13:57:32;23.79;53.32
22917;DHT22;11624;53.250;7.456;2023-07-22T14:00:00;23.76;53.66
22917;DHT22;11624;53.250;7.456;2023-07-22T14:02:39;23.81;53.55
22917;DHT22;11624;53.250;7.456;2023-07-22T14:05:08;23.79;53.52
22917;DHT22;11624;53.250;7.456;2023-07-22T14:07:38;23.77;53.73
22917;DHT22;11624;53.250;7.456;2023-07-22T14:10:07;23.81;53.59
22917;DHT22;11624;53.250;7.456;2023-07-22T14:12:36;23.68;53.65
22917;DHT22;11624;53.250;7.456;2023-07-22T14:15:05;23.60;53.75
22917;DHT22;11624;53.250;7.456;2023-07-22T14:17:34;23.55;54.08
22917;DHT22;11624;53.250;7.456;2023-07-22T14:20:07;23.65;53.84
22917;DHT22;11624;53.250;7.456;2023-07-22T14:22:35;23.68;53.84
22917;DHT22;11624;53.250;7.456;2023-07-22T14:25:04;23.67;53.84
22917;DHT22;11624;53.250;7.456;2023-07-22T14:27:32;23.49;54.12
22917;DHT22;11624;53.250;7.456;2023-07-22T14:30:02;23.43;54.49
22917;DHT22;11624;53.250;7.456;2023-07-22T14:32:31;23.45;54.55
22917;DHT22;11624;53.250;7.456;2023-07-22T14:35:00;23.47;54.45
22917;DHT22;11624;53.250;7.456;2023-07-22T14:37:29;23.49;54.49
22917;DHT22;11624;53.250;7.456;2023-07-22T14:39:58;23.46;54.59
22917;DHT22;11624;53.250;7.456;2023-07-22T14:42:26;23.46;54.65
22917;DHT22;11624;53.250;7.456;2023-07-22T14:44:55;23.34;55.00
22917;DHT22;11624;53.250;7.456;2023-07-22T14:47:23;23.26;55.17
22917;DHT22;11624;53.250;7.456;2023-07-22T14:49:53;23.27;54.99
22917;DHT22;11624;53.250;7.456;2023-07-22T14:52:22;23.23;55.07
22917;DHT22;11624;53.250;7.456;2023-07-22T14:54:52;23.23;54.94
22917;DHT22;11624;53.250;7.456;2023-07-22T14:57:20;23.28;55.02
22917;DHT22;11624;53.250;7.456;2023-07-22T14:59:48;23.27;55.17
22917;DHT22;11624;53.250;7.456;2023-07-22T15:02:17;23.27;55.15
22917;DHT22;11624;53.250;7.456;2023-07-22T15:04:45;23.29;55.20
22917;DHT22;11624;53.250;7.456;2023-07-22T15:07:14;23.34;54.90
22917;DHT22;11624;53.250;7.456;2023-07-22T15:09:42;23.30;54.90
22917;DHT22;11624;53.250;7.456;2023-07-22T15:12:12;23.38;54.50
22917;DHT22;11624;53.250;7.456;2023-07-22T15:14:44;23.38;54.40
22917;DHT22;11624;53.250;7.456;2023-07-22T15:17:12;23.44;54.41
22917;DHT22;11624;53.250;7.456;2023-07-22T15:19:40;23.37;54.17
22917;DHT22;11624;53.250;7.456;2023-07-22T15:22:09;23.38;54.04
22917;DHT22;11624;53.250;7.456;2023-07-22T15:24:37;23.32;54.04
22917;DHT22;11624;53.250;7.456;2023-07-22T15:27:06;23.28;54.24
22917;DHT22;11624;53.250;7.456;2023-07-22T15:29:36;23.21;54.28
22917;DHT22;11624;53.250;7.456;2023-07-22T15:32:05;23.24;54.37
22917;DHT22;11624;53.250;7.456;2023-07-22T15:34:33;23.20;54.31
22917;DHT22;11624;53.250;7.456;2023-07-22T15:37:02;23.11;54.45
22917;DHT22;11624;53.250;7.456;2023-07-22T15:39:30;23.07;54.82
22917;DHT22;11624;53.250;7.456;2023-07-22T15:41:58;23.05;54.87
22917;DHT22;11624;53.250;7.456;2023-07-22T15:44:27;23.09;54.85